KLKV/LKV METAR and TAF weather

Enter ICAO airport designator
Station Type Date Time Source
KLKV METAR 2020/06/06 20:53 UTC NOAA

KLKV 062053Z AUTO 24016G20KT 10SM BKN055 BKN075 BKN090 13/M01 A2978 RMK AO2 SLP065 T01331006 58002


Station Type Date Time Source
KLKV Decoded METAR 2020/06/06 20:53 UTC NOAA

Lakeview, Lake County Airport, OR, United States (KLKV) 42-10N 120-24W
Jun 06, 2020 - 04:53 PM EDT / 2020.06.06 2053 UTC
Wind: from the WSW (240 degrees) at 18 MPH (16 KT) gusting to 23 MPH (20 KT):0
Visibility: 10 mile(s):0
Sky conditions: mostly cloudy
Temperature: 55.9 F (13.3 C)
Dew Point: 30.9 F (-0.6 C)
Relative Humidity: 38%
Pressure (altimeter): 29.78 in. Hg (1008 hPa)
Pressure tendency: 0.01 inches (0.2 hPa) lower than three hours ago
ob: KLKV 062053Z AUTO 24016G20KT 10SM BKN055 BKN075 BKN090 13/M01 A2978 RMK AO2 SLP065 T01331006 58002
cycle: 21

Station Type Date Time Source
KLKV TAF UTC NOAA

Error!

Example: see airport list